createdAt,value
2018-09-25T05:33:45.656Z,56.25
2018-09-25T11:17:09.233Z,916.88
2018-09-25T11:18:09.140Z,838.12
2018-09-25T11:19:09.286Z,781.88
2018-09-25T11:20:09.256Z,748.12
2018-09-25T12:16:51.450Z,708.75
2018-09-25T12:17:32.729Z,680.62
2018-09-25T12:18:32.760Z,669.38
2018-09-25T12:19:33.577Z,658.12
2018-09-25T12:22:14.478Z,680.62
2018-09-25T12:25:24.760Z,720.00
2018-09-25T12:35:49.080Z,1018.12
2018-09-25T12:36:41.653Z,1063.12
2018-09-25T12:37:42.502Z,1108.12
2018-09-25T13:07:35.200Z,1113.75
2018-09-25T13:12:31.767Z,1051.88
2018-09-25T13:21:12.889Z,1192.50
2018-09-25T13:22:13.322Z,1473.75
2018-09-25T13:23:12.876Z,2295.00
2018-09-25T13:24:12.521Z,2722.50
2018-09-25T13:25:12.373Z,2823.75
2018-09-25T13:26:12.458Z,2846.25
2018-09-25T13:27:12.390Z,2953.12
2018-09-25T13:28:13.363Z,2666.25
2018-09-25T13:29:12.393Z,3026.25
2018-09-25T13:30:12.325Z,3082.50
2018-09-25T13:31:12.371Z,2958.75
2018-09-25T13:32:12.430Z,3121.88
2018-09-25T13:33:12.512Z,3268.12
2018-09-25T13:34:12.279Z,3183.75
2018-09-25T13:35:13.727Z,3161.25
2018-09-25T13:36:12.255Z,3318.75
2018-09-25T13:37:12.260Z,2790.00
2018-09-25T13:38:12.230Z,3453.75
2018-09-25T13:39:12.617Z,3453.75
2018-09-25T13:40:12.212Z,3116.25
2018-09-25T13:43:17.690Z,3465.00
2018-09-25T13:44:17.652Z,3391.88
2018-09-25T14:13:27.891Z,967.50
2018-09-25T14:14:27.429Z,973.12
2018-09-25T14:15:30.234Z,956.25
2018-09-25T14:16:27.120Z,950.62
2018-09-25T14:17:27.846Z,922.50
2018-09-25T14:18:27.118Z,866.25
2018-09-25T14:19:26.931Z,821.25
2018-09-25T14:20:26.986Z,804.38
2018-09-25T14:21:26.938Z,826.88
2018-09-25T14:22:26.917Z,871.88
2018-09-25T14:23:26.937Z,871.88
2018-09-25T14:24:26.898Z,866.25
2018-09-25T14:25:26.934Z,1051.88
2018-09-25T14:26:27.051Z,1586.25
2018-09-25T14:27:26.854Z,1946.25
2018-09-25T14:28:26.816Z,1586.25
2018-09-25T14:29:26.806Z,1254.38
2018-09-25T14:30:26.821Z,1215.00
2018-09-25T14:31:30.182Z,1198.12
2018-09-25T14:39:53.256Z,691.88
2018-09-25T14:40:53.967Z,697.50
2018-09-25T14:41:52.184Z,652.50
2018-09-25T14:42:52.153Z,596.25
2018-09-25T14:43:52.144Z,573.75
2018-09-25T14:44:52.079Z,556.88
2018-09-25T14:45:51.963Z,573.75
2018-09-25T14:46:52.267Z,585.00
2018-09-25T14:47:52.008Z,590.62
2018-09-25T14:48:52.021Z,573.75
2018-09-25T14:49:51.961Z,545.62
2018-09-25T14:50:52.154Z,506.25
2018-09-25T14:51:52.012Z,517.50
2018-09-25T14:52:52.109Z,540.00
2018-09-25T14:53:51.917Z,534.38
2018-09-25T14:54:51.855Z,528.75
2018-09-25T14:55:51.959Z,517.50
2018-09-25T14:56:51.868Z,506.25
2018-09-25T15:04:36.112Z,438.75
2018-09-25T15:07:21.106Z,399.38
2018-09-25T15:08:20.789Z,388.12
2018-09-25T15:09:20.351Z,376.88
2018-09-25T15:10:20.631Z,365.62
2018-09-25T15:11:20.250Z,360.00
2018-09-25T16:43:02.779Z,135.00
2018-09-25T16:44:02.523Z,129.38
2018-09-25T16:45:02.635Z,129.38
2018-09-25T18:11:23.828Z,0.00
2018-09-25T18:12:23.451Z,0.00
2018-09-25T18:13:23.392Z,0.00
2018-09-25T18:14:23.444Z,0.00
2018-09-25T18:18:36.604Z,0.00
2018-09-25T18:19:36.317Z,0.00
2018-09-25T18:43:59.050Z,0.00
2018-09-25T18:44:58.245Z,0.00
2018-09-25T18:45:58.168Z,0.00
2018-09-25T18:46:58.242Z,0.00
2018-09-25T18:47:58.108Z,0.00
2018-09-25T18:48:58.123Z,0.00
2018-09-25T18:49:58.124Z,0.00
2018-09-25T18:50:58.048Z,0.00
2018-09-25T18:51:58.119Z,0.00
2018-09-25T18:52:58.044Z,0.00
2018-09-25T18:53:58.011Z,0.00
2018-09-25T18:54:58.020Z,0.00
2018-09-25T18:55:58.034Z,0.00
2018-09-25T18:56:58.023Z,0.00
2018-09-25T18:57:58.024Z,0.00
2018-09-25T18:58:57.973Z,0.00
2018-09-25T18:59:57.985Z,0.00
2018-09-25T19:00:57.961Z,0.00
2018-09-25T19:01:58.017Z,0.00
2018-09-25T19:04:31.296Z,0.00
2018-09-25T19:05:31.002Z,0.00
2018-09-25T19:06:30.908Z,0.00
2018-09-25T19:07:30.953Z,0.00
2018-09-25T19:08:30.675Z,0.00
2018-09-25T19:09:30.662Z,0.00
2018-09-25T19:10:32.364Z,0.00
2018-09-25T19:11:30.628Z,0.00
2018-09-25T19:12:30.619Z,0.00
2018-09-25T19:13:30.579Z,0.00
2018-09-25T19:15:47.902Z,0.00
2018-09-25T19:16:47.556Z,0.00
2018-09-25T19:17:47.662Z,0.00
2018-09-25T19:18:48.132Z,0.00
2018-09-25T19:19:47.442Z,0.00
2018-09-25T19:20:47.485Z,0.00
2018-09-25T19:21:47.551Z,0.00
2018-09-25T19:22:47.369Z,0.00
2018-09-25T19:23:47.390Z,0.00
2018-09-25T19:24:47.323Z,0.00
2018-09-25T19:25:47.331Z,0.00
2018-09-25T19:26:47.301Z,0.00
2018-09-25T19:27:48.238Z,0.00
2018-09-25T19:28:47.297Z,0.00
2018-09-25T19:29:47.268Z,0.00
2018-09-25T19:30:47.387Z,0.00
2018-09-25T19:31:47.293Z,0.00
2018-09-25T19:32:47.249Z,0.00
2018-09-25T19:33:47.231Z,0.00
2018-09-25T19:34:47.209Z,0.00
2018-09-25T19:35:47.284Z,0.00
2018-09-25T19:36:47.185Z,0.00
2018-09-25T19:37:47.194Z,0.00
2018-09-25T19:38:47.202Z,0.00
2018-09-25T19:39:47.153Z,0.00
2018-09-25T19:40:47.147Z,0.00
2018-09-25T19:41:47.132Z,0.00
2018-09-25T19:42:47.131Z,0.00
2018-09-25T19:43:47.141Z,0.00
2018-09-25T19:44:47.127Z,0.00
2018-09-25T19:45:47.087Z,0.00
2018-09-25T19:46:47.082Z,0.00
2018-09-25T19:47:47.071Z,0.00
2018-09-25T19:48:47.092Z,0.00
2018-09-25T19:49:47.083Z,0.00
2018-09-25T19:50:47.042Z,0.00
2018-09-25T19:51:47.034Z,0.00
2018-09-25T19:52:47.012Z,0.00
2018-09-25T19:53:47.006Z,0.00
2018-09-25T19:54:47.014Z,0.00
2018-09-25T19:55:46.992Z,0.00
2018-09-25T19:56:46.983Z,0.00
2018-09-25T19:57:46.985Z,0.00
2018-09-25T19:58:46.947Z,0.00
2018-09-25T19:59:46.985Z,0.00
2018-09-25T20:00:46.942Z,0.00
2018-09-25T20:01:46.939Z,0.00
2018-09-25T20:02:46.920Z,0.00
2018-09-25T20:03:46.893Z,0.00
2018-09-25T20:04:47.011Z,0.00
2018-09-25T20:05:46.898Z,0.00
2018-09-25T20:06:46.865Z,0.00
2018-09-25T20:07:46.882Z,0.00
2018-09-25T20:08:46.842Z,0.00
2018-09-25T20:09:46.829Z,0.00
2018-09-25T20:10:46.865Z,0.00
2018-09-25T20:11:46.806Z,0.00
2018-09-25T20:12:46.862Z,0.00
2018-09-25T20:13:46.790Z,0.00
2018-09-25T20:14:46.782Z,0.00
2018-09-25T20:15:46.821Z,0.00
2018-09-25T20:16:46.751Z,0.00
2018-09-25T20:17:46.749Z,0.00
2018-09-25T20:18:46.729Z,0.00
2018-09-25T20:19:46.810Z,0.00
2018-09-25T20:20:46.726Z,0.00
2018-09-25T20:21:46.707Z,0.00
2018-09-25T20:22:46.750Z,0.00
2018-09-25T20:23:46.671Z,0.00
2018-09-25T20:24:46.664Z,0.00
2018-09-25T20:25:46.675Z,0.00
2018-09-25T20:26:46.637Z,0.00
2018-09-25T20:27:46.631Z,0.00
2018-09-25T20:28:46.647Z,0.00
2018-09-25T20:29:46.617Z,0.00
2018-09-25T20:30:46.601Z,0.00
2018-09-25T20:31:46.582Z,0.00
2018-09-25T20:32:46.651Z,0.00
2018-09-25T20:33:46.565Z,0.00
2018-09-25T20:34:46.552Z,0.00
2018-09-25T20:35:46.613Z,0.00
2018-09-25T20:36:46.537Z,0.00
2018-09-25T20:37:46.527Z,0.00
2018-09-25T20:38:46.549Z,0.00
2018-09-25T20:39:46.498Z,0.00
2018-09-25T20:40:46.507Z,0.00
2018-09-25T20:41:46.485Z,0.00
2018-09-25T20:42:46.466Z,0.00
2018-09-25T20:43:46.478Z,0.00
2018-09-25T20:44:46.442Z,0.00
2018-09-25T20:45:46.435Z,0.00
2018-09-25T20:46:46.443Z,0.00
2018-09-25T20:47:46.417Z,0.00
2018-09-25T20:48:46.404Z,0.00
2018-09-25T20:49:46.425Z,0.00
2018-09-25T20:50:46.395Z,0.00
2018-09-25T20:51:46.369Z,0.00
2018-09-25T20:52:47.003Z,0.00
2018-09-25T20:53:46.342Z,0.00
2018-09-25T20:54:46.379Z,0.00
2018-09-25T20:55:46.344Z,0.00
2018-09-25T20:56:46.350Z,0.00
2018-09-25T20:57:46.326Z,0.00
2018-09-25T20:58:46.291Z,0.00
2018-09-25T20:59:46.362Z,0.00
2018-09-25T21:00:46.310Z,0.00
2018-09-25T21:01:46.274Z,0.00
2018-09-25T21:02:46.278Z,0.00
2018-09-25T21:03:46.239Z,0.00
2018-09-25T21:04:46.265Z,0.00
2018-09-25T21:05:46.213Z,0.00
2018-09-25T21:06:46.215Z,0.00
2018-09-25T21:07:46.185Z,0.00
2018-09-25T21:08:46.189Z,0.00
2018-09-25T21:09:46.164Z,0.00
2018-09-25T21:10:46.160Z,0.00
2018-09-25T21:11:46.172Z,0.00
2018-09-25T21:12:46.158Z,0.00
2018-09-25T21:13:46.116Z,0.00
2018-09-25T21:14:46.161Z,0.00
2018-09-25T21:15:46.217Z,0.00
2018-09-25T21:16:46.104Z,0.00
2018-09-25T21:17:46.084Z,0.00
2018-09-25T21:18:46.072Z,0.00
2018-09-25T21:19:46.065Z,0.00
2018-09-25T21:20:46.044Z,0.00
2018-09-25T21:21:46.049Z,0.00
2018-09-25T21:22:46.051Z,0.00
2018-09-25T21:23:46.010Z,0.00
2018-09-25T21:24:46.020Z,0.00
2018-09-25T21:25:45.997Z,0.00
2018-09-25T21:26:46.223Z,0.00
2018-09-25T21:27:46.009Z,0.00
2018-09-25T21:28:45.957Z,0.00
2018-09-25T21:29:45.959Z,0.00
2018-09-25T21:30:45.957Z,0.00
2018-09-25T21:31:45.920Z,0.00
2018-09-25T21:32:45.930Z,0.00
2018-09-25T21:33:45.929Z,0.00
2018-09-25T21:34:45.888Z,0.00
2018-09-25T21:35:45.909Z,0.00
2018-09-25T21:36:45.863Z,0.00
2018-09-25T21:37:45.878Z,0.00
2018-09-25T21:38:45.859Z,0.00
2018-09-25T21:39:45.876Z,0.00
2018-09-25T21:40:45.887Z,0.00
2018-09-25T21:41:45.806Z,0.00
2018-09-25T21:42:45.857Z,0.00
2018-09-25T21:43:45.813Z,0.00
2018-09-25T21:44:45.852Z,0.00
2018-09-25T21:45:45.765Z,0.00
2018-09-25T21:46:45.758Z,0.00
2018-09-25T21:47:45.758Z,0.00
2018-09-25T21:48:45.779Z,0.00
2018-09-25T21:49:45.746Z,0.00
2018-09-25T21:50:45.810Z,0.00
2018-09-25T21:51:45.758Z,0.00
2018-09-25T21:52:45.685Z,0.00
2018-09-25T21:53:45.676Z,0.00
2018-09-25T21:54:45.686Z,0.00
2018-09-25T21:55:46.028Z,0.00
2018-09-25T21:56:45.662Z,0.00
2018-09-25T21:57:45.766Z,0.00
2018-09-25T21:58:45.625Z,0.00
2018-09-25T21:59:45.610Z,0.00
2018-09-25T22:00:45.608Z,0.00
2018-09-25T22:01:45.627Z,0.00
2018-09-25T22:02:45.582Z,0.00
2018-09-25T22:03:45.583Z,0.00
2018-09-25T22:04:45.561Z,0.00
2018-09-25T22:05:45.560Z,0.00
2018-09-25T22:06:45.535Z,0.00
2018-09-25T22:07:45.534Z,0.00
2018-09-25T22:08:45.539Z,0.00
2018-09-25T22:09:45.501Z,0.00
2018-09-25T22:10:45.493Z,0.00
2018-09-25T22:11:45.574Z,0.00
2018-09-25T22:12:45.472Z,0.00
2018-09-25T22:13:45.545Z,0.00
2018-09-25T22:14:45.450Z,0.00
2018-09-25T22:15:45.435Z,0.00
2018-09-25T22:16:45.432Z,0.00
2018-09-25T22:17:45.427Z,0.00
2018-09-25T22:18:45.402Z,0.00
2018-09-25T22:19:45.434Z,0.00
2018-09-25T22:20:45.387Z,0.00
2018-09-25T22:21:45.420Z,0.00
2018-09-25T22:22:45.363Z,0.00
2018-09-25T22:23:45.366Z,0.00
2018-09-25T22:24:45.386Z,0.00
2018-09-25T22:25:45.336Z,0.00
2018-09-25T22:26:45.354Z,0.00
2018-09-25T22:27:45.341Z,0.00
2018-09-25T22:28:45.301Z,0.00
2018-09-25T22:29:45.290Z,0.00
2018-09-25T22:30:45.268Z,0.00
2018-09-25T22:31:45.262Z,0.00
2018-09-25T22:32:45.341Z,0.00
2018-09-25T22:33:45.271Z,0.00
2018-09-25T22:34:45.240Z,0.00
2018-09-25T22:35:45.242Z,0.00
2018-09-25T22:36:45.210Z,0.00
2018-09-25T22:37:45.197Z,0.00
2018-09-25T22:38:45.183Z,0.00
2018-09-25T22:39:45.254Z,0.00
2018-09-25T22:40:45.175Z,0.00
2018-09-25T22:41:45.160Z,0.00
2018-09-25T22:42:45.143Z,0.00
2018-09-25T22:43:45.131Z,0.00
2018-09-25T22:44:45.145Z,0.00
2018-09-25T22:45:45.134Z,0.00
2018-09-25T22:46:45.104Z,0.00
2018-09-25T22:47:45.095Z,0.00
2018-09-25T22:48:45.075Z,0.00
2018-09-25T22:49:45.069Z,0.00
2018-09-25T22:50:45.077Z,0.00
2018-09-25T22:51:45.045Z,0.00
2018-09-25T22:52:45.042Z,0.00
2018-09-25T22:53:45.060Z,0.00
2018-09-25T22:54:45.031Z,0.00
2018-09-25T22:55:45.009Z,0.00
2018-09-25T22:56:44.991Z,0.00
2018-09-25T22:57:44.991Z,0.00
2018-09-25T22:58:45.012Z,0.00
2018-09-25T22:59:44.981Z,0.00
2018-09-25T23:00:44.948Z,0.00
2018-09-25T23:01:44.961Z,0.00
2018-09-25T23:02:44.925Z,0.00
2018-09-25T23:03:44.913Z,0.00
2018-09-25T23:04:44.896Z,0.00
2018-09-25T23:05:44.953Z,0.00
2018-09-25T23:06:44.884Z,0.00
2018-09-25T23:07:44.879Z,0.00
2018-09-25T23:08:44.867Z,0.00
2018-09-25T23:09:44.867Z,0.00
2018-09-25T23:10:44.832Z,0.00
2018-09-25T23:11:44.826Z,0.00
2018-09-25T23:12:44.807Z,0.00
2018-09-25T23:13:44.806Z,0.00
2018-09-25T23:14:44.865Z,0.00
2018-09-25T23:15:44.825Z,0.00
2018-09-25T23:16:44.769Z,0.00
2018-09-25T23:17:44.755Z,0.00
2018-09-25T23:18:44.749Z,0.00
2018-09-25T23:19:44.740Z,0.00
2018-09-25T23:20:44.787Z,0.00
2018-09-25T23:21:44.770Z,0.00
2018-09-25T23:22:44.699Z,0.00
2018-09-25T23:23:44.686Z,0.00
2018-09-25T23:24:44.677Z,0.00
2018-09-25T23:25:44.684Z,0.00
2018-09-25T23:26:44.678Z,0.00
2018-09-25T23:27:44.661Z,0.00
2018-09-25T23:28:44.635Z,0.00
2018-09-25T23:29:44.619Z,0.00
2018-09-25T23:30:44.617Z,0.00
2018-09-25T23:31:44.633Z,0.00
2018-09-25T23:32:44.613Z,0.00
2018-09-25T23:33:44.575Z,0.00
2018-09-25T23:34:44.586Z,0.00
2018-09-25T23:35:44.580Z,0.00
2018-09-25T23:36:44.582Z,0.00
2018-09-25T23:37:44.561Z,0.00
2018-09-25T23:38:44.557Z,0.00
2018-09-25T23:39:44.508Z,0.00
2018-09-25T23:40:44.502Z,0.00
2018-09-25T23:41:44.499Z,0.00
2018-09-25T23:42:44.508Z,0.00
2018-09-25T23:43:44.494Z,0.00
2018-09-25T23:44:44.458Z,0.00
2018-09-25T23:45:44.448Z,0.00
2018-09-25T23:46:44.436Z,0.00
2018-09-25T23:47:44.458Z,0.00
2018-09-25T23:48:44.423Z,0.00
2018-09-25T23:49:44.405Z,0.00
2018-09-25T23:50:44.382Z,0.00
2018-09-25T23:51:44.381Z,0.00
2018-09-25T23:52:44.365Z,0.00
2018-09-25T23:53:44.396Z,0.00
2018-09-25T23:54:44.342Z,0.00
2018-09-25T23:55:44.332Z,0.00
2018-09-25T23:56:44.336Z,0.00
2018-09-25T23:57:44.312Z,0.00
2018-09-25T23:58:44.327Z,0.00
2018-09-25T23:59:44.339Z,0.00
